createdAt,value
2023-05-19T00:01:52.429Z,1.47
2023-05-19T00:04:19.323Z,1.35
2023-05-19T00:06:50.842Z,1.10
2023-05-19T00:09:17.857Z,1.20
2023-05-19T00:11:44.623Z,1.75
2023-05-19T00:14:11.505Z,1.37
2023-05-19T00:16:38.605Z,1.30
2023-05-19T00:19:06.550Z,2.10
2023-05-19T00:21:33.274Z,1.02
2023-05-19T00:23:59.853Z,1.35
2023-05-19T00:26:27.175Z,1.40
2023-05-19T00:28:54.227Z,1.70
2023-05-19T00:31:21.023Z,1.55
2023-05-19T00:33:47.640Z,1.50
2023-05-19T00:36:14.283Z,1.33
2023-05-19T00:38:40.979Z,1.50
2023-05-19T00:41:07.816Z,1.23
2023-05-19T00:43:34.708Z,1.30
2023-05-19T00:46:01.879Z,1.35
2023-05-19T00:48:28.736Z,1.58
2023-05-19T00:51:01.982Z,1.20
2023-05-19T00:53:29.313Z,1.30
2023-05-19T00:55:56.095Z,1.48
2023-05-19T00:58:23.818Z,1.48
2023-05-19T01:00:50.716Z,1.58
2023-05-19T01:03:20.686Z,1.60
2023-05-19T01:05:47.701Z,1.58
2023-05-19T01:08:14.392Z,1.48
2023-05-19T01:10:40.967Z,1.35
2023-05-19T01:13:08.490Z,1.70
2023-05-19T01:15:51.444Z,1.53
2023-05-19T01:18:29.545Z,1.35
2023-05-19T01:21:22.952Z,1.30
2023-05-19T01:24:12.453Z,1.63
2023-05-19T01:27:09.994Z,1.55
2023-05-19T01:29:47.618Z,1.30
2023-05-19T01:32:19.516Z,1.45
2023-05-19T01:34:49.128Z,1.45
2023-05-19T01:37:17.676Z,1.70
2023-05-19T01:39:45.679Z,1.50
2023-05-19T01:42:14.368Z,1.73
2023-05-19T01:44:41.784Z,2.00
2023-05-19T01:47:10.846Z,1.70
2023-05-19T01:49:37.595Z,1.55
2023-05-19T01:52:04.680Z,1.38
2023-05-19T01:54:31.261Z,1.33
2023-05-19T01:57:09.176Z,1.42
2023-05-19T01:59:52.246Z,1.90
2023-05-19T02:02:29.517Z,1.58
2023-05-19T02:05:00.614Z,1.90
2023-05-19T02:07:37.359Z,1.70
2023-05-19T02:10:07.029Z,1.25
2023-05-19T02:12:37.614Z,1.63
2023-05-19T02:15:10.916Z,1.90
2023-05-19T02:17:43.040Z,1.80
2023-05-19T02:20:10.460Z,1.93
2023-05-19T02:22:36.973Z,1.92
2023-05-19T02:25:03.728Z,1.80
2023-05-19T02:27:30.895Z,2.05
2023-05-19T02:29:57.585Z,1.52
2023-05-19T02:32:24.128Z,1.77
2023-05-19T02:34:50.668Z,1.85
2023-05-19T02:37:17.679Z,1.80
2023-05-19T02:39:45.072Z,1.80
2023-05-19T02:42:12.398Z,1.80
2023-05-19T02:44:38.878Z,1.60
2023-05-19T02:47:05.384Z,1.83
2023-05-19T02:49:35.835Z,2.08
2023-05-19T02:52:04.387Z,1.90
2023-05-19T02:54:31.799Z,1.95
2023-05-19T02:56:58.458Z,1.70
2023-05-19T02:59:25.775Z,1.90
2023-05-19T03:01:56.315Z,1.50
2023-05-19T03:04:22.937Z,1.70
2023-05-19T03:06:50.213Z,1.63
2023-05-19T03:09:16.936Z,2.07
2023-05-19T03:11:43.476Z,1.75
2023-05-19T03:14:10.049Z,2.08
2023-05-19T03:16:36.720Z,1.88
2023-05-19T03:19:03.431Z,2.13
2023-05-19T03:21:30.441Z,1.77
2023-05-19T03:23:56.969Z,1.83
2023-05-19T03:26:24.459Z,2.10
2023-05-19T03:28:51.238Z,1.85
2023-05-19T03:31:17.809Z,2.17
2023-05-19T03:33:44.432Z,1.70
2023-05-19T03:36:12.602Z,2.08
2023-05-19T03:38:39.431Z,1.80
2023-05-19T03:41:05.942Z,2.47
2023-05-19T03:43:32.497Z,2.33
2023-05-19T03:45:59.026Z,1.97
2023-05-19T03:48:26.741Z,2.47
2023-05-19T03:50:54.237Z,2.33
2023-05-19T03:53:20.855Z,2.30
2023-05-19T03:55:49.722Z,2.05
2023-05-19T03:58:16.628Z,2.13
2023-05-19T04:00:43.323Z,2.50
2023-05-19T04:03:09.902Z,2.13
2023-05-19T04:05:36.521Z,2.30
2023-05-19T04:08:03.037Z,2.20
2023-05-19T04:10:29.707Z,1.77
2023-05-19T04:12:56.913Z,2.20
2023-05-19T04:15:23.543Z,2.50
2023-05-19T04:17:50.205Z,1.80
2023-05-19T04:20:16.771Z,2.25
2023-05-19T04:22:43.366Z,2.23
2023-05-19T04:25:11.340Z,2.13
2023-05-19T04:27:38.917Z,2.35
2023-05-19T04:30:06.640Z,2.60
2023-05-19T04:32:33.244Z,2.42
2023-05-19T04:34:59.939Z,2.47
2023-05-19T04:37:26.758Z,2.20
2023-05-19T04:39:54.243Z,2.70
2023-05-19T04:42:21.066Z,2.28
2023-05-19T04:44:49.387Z,2.20
2023-05-19T04:47:16.234Z,1.93
2023-05-19T04:49:43.004Z,2.20
2023-05-19T04:52:10.982Z,2.30
2023-05-19T04:54:40.245Z,2.45
2023-05-19T04:57:07.742Z,2.40
2023-05-19T04:59:35.313Z,2.47
2023-05-19T05:02:02.012Z,2.60
2023-05-19T05:04:28.715Z,2.60
2023-05-19T05:06:56.261Z,2.47
2023-05-19T05:09:22.817Z,3.40
2023-05-19T05:11:49.814Z,2.33
2023-05-19T05:14:16.868Z,2.30
2023-05-19T05:16:43.766Z,2.83
2023-05-19T05:19:10.810Z,2.78
2023-05-19T05:21:37.683Z,2.65
2023-05-19T05:24:04.525Z,2.97
2023-05-19T05:26:33.793Z,2.53
2023-05-19T05:29:00.490Z,2.67
2023-05-19T05:31:27.085Z,2.75
2023-05-19T05:33:53.625Z,2.75
2023-05-19T05:36:20.315Z,2.70
2023-05-19T05:38:46.811Z,2.72
2023-05-19T05:41:13.372Z,3.17
2023-05-19T05:43:39.942Z,2.90
2023-05-19T05:46:06.582Z,2.88
2023-05-19T05:48:33.689Z,2.40
2023-05-19T05:51:00.675Z,2.88
2023-05-19T05:53:30.732Z,3.08
2023-05-19T05:55:57.635Z,4.25
2023-05-19T05:58:24.284Z,2.70
2023-05-19T06:00:51.443Z,2.50
2023-05-19T06:03:18.135Z,2.92
2023-05-19T06:05:44.818Z,3.35
2023-05-19T06:08:11.349Z,3.05
2023-05-19T06:10:41.652Z,3.15
2023-05-19T06:13:08.193Z,2.90
2023-05-19T06:15:34.735Z,3.63
2023-05-19T06:18:01.468Z,3.53
2023-05-19T06:20:28.721Z,3.30
2023-05-19T06:22:55.814Z,2.88
2023-05-19T06:25:22.876Z,3.07
2023-05-19T06:27:49.722Z,2.90
2023-05-19T06:30:16.630Z,2.65
2023-05-19T06:32:43.190Z,3.10
2023-05-19T06:35:09.824Z,3.38
2023-05-19T06:37:36.554Z,2.90
2023-05-19T06:40:03.636Z,3.42
2023-05-19T06:42:30.122Z,3.10
2023-05-19T06:44:56.698Z,3.40
2023-05-19T06:47:23.283Z,2.75
2023-05-19T06:49:51.691Z,3.33
2023-05-19T06:52:18.294Z,3.20
2023-05-19T06:54:44.866Z,3.50
2023-05-19T06:57:11.431Z,2.95
2023-05-19T06:59:40.754Z,2.53
2023-05-19T07:02:08.179Z,3.17
2023-05-19T07:04:35.539Z,2.55
2023-05-19T07:07:02.312Z,3.28
2023-05-19T07:09:28.907Z,3.10
2023-05-19T07:11:56.359Z,2.65
2023-05-19T07:14:23.242Z,2.50
2023-05-19T07:16:49.972Z,3.67
2023-05-19T07:19:16.859Z,2.70
2023-05-19T07:21:43.496Z,2.65
2023-05-19T07:24:10.095Z,2.30
2023-05-19T07:26:36.629Z,2.60
2023-05-19T07:29:04.286Z,2.58
2023-05-19T07:31:31.135Z,3.08
2023-05-19T07:33:59.040Z,1.98
2023-05-19T07:36:25.720Z,3.05
2023-05-19T07:38:52.320Z,2.13
2023-05-19T07:41:18.863Z,2.55
2023-05-19T07:43:45.549Z,2.33
2023-05-19T07:46:12.128Z,2.35
2023-05-19T07:48:38.705Z,1.80
2023-05-19T07:51:05.478Z,1.83
2023-05-19T07:53:31.984Z,2.03
2023-05-19T07:55:58.869Z,2.00
2023-05-19T07:58:25.661Z,1.73
2023-05-19T08:00:53.211Z,1.70
2023-05-19T08:03:20.971Z,1.73
2023-05-19T08:05:49.005Z,1.65
2023-05-19T08:08:17.000Z,2.20
2023-05-19T08:10:43.622Z,1.77
2023-05-19T08:13:10.210Z,1.30
2023-05-19T08:15:36.916Z,1.10
2023-05-19T08:18:05.399Z,0.82
2023-05-19T08:20:32.949Z,0.80
2023-05-19T08:22:59.937Z,1.00
2023-05-19T08:25:26.584Z,0.80
2023-05-19T08:27:53.262Z,0.90
2023-05-19T08:30:20.021Z,0.45
2023-05-19T08:32:47.060Z,0.70
2023-05-19T08:35:13.847Z,0.60
2023-05-19T08:37:40.942Z,0.40
2023-05-19T08:40:08.970Z,0.47
2023-05-19T08:42:35.838Z,1.02
2023-05-19T08:45:04.426Z,0.68
2023-05-19T08:47:33.021Z,0.70
2023-05-19T08:50:07.448Z,0.65
2023-05-19T08:52:48.918Z,0.80
2023-05-19T08:55:28.489Z,0.60
2023-05-19T08:57:56.668Z,0.77
2023-05-19T09:00:23.648Z,0.40
2023-05-19T09:03:00.232Z,0.43
2023-05-19T09:05:33.556Z,0.57
2023-05-19T09:08:02.722Z,0.80
2023-05-19T09:10:29.562Z,0.57
2023-05-19T09:12:56.388Z,0.93
2023-05-19T09:15:26.717Z,0.90
2023-05-19T09:18:12.097Z,0.60
2023-05-19T09:20:41.813Z,0.70
2023-05-19T09:23:13.722Z,0.80
2023-05-19T09:25:49.911Z,0.98
2023-05-19T09:28:29.474Z,0.60
2023-05-19T09:31:12.241Z,0.73
2023-05-19T09:33:45.521Z,1.15
2023-05-19T09:36:13.886Z,0.70
2023-05-19T09:38:41.401Z,2.35
2023-05-19T09:41:09.270Z,1.77
2023-05-19T09:43:36.504Z,1.00
2023-05-19T09:46:06.656Z,0.82
2023-05-19T09:48:34.613Z,1.40
2023-05-19T09:51:03.328Z,0.95
2023-05-19T09:53:31.358Z,0.85
2023-05-19T09:55:59.049Z,0.50
2023-05-19T09:58:26.849Z,0.77
2023-05-19T10:00:54.776Z,0.65
2023-05-19T10:03:24.779Z,0.80
2023-05-19T10:05:54.496Z,0.82
2023-05-19T10:08:24.141Z,0.77
2023-05-19T10:10:50.839Z,0.63
2023-05-19T10:13:18.823Z,0.75
2023-05-19T10:18:22.961Z,0.90
2023-05-19T10:20:50.436Z,0.70
2023-05-19T10:23:17.327Z,0.90
2023-05-19T10:25:46.059Z,0.77
2023-05-19T10:28:17.224Z,1.02
2023-05-19T10:30:47.692Z,0.80
2023-05-19T10:33:18.115Z,1.13
2023-05-19T10:36:08.308Z,0.60
2023-05-19T10:38:56.521Z,0.80
2023-05-19T10:41:42.335Z,0.90
2023-05-19T10:44:34.461Z,1.00
2023-05-19T10:47:01.246Z,0.90
2023-05-19T10:49:27.969Z,1.00
2023-05-19T10:51:57.278Z,1.40
2023-05-19T10:54:41.227Z,1.10
2023-05-19T10:57:08.682Z,1.20
2023-05-19T10:59:37.825Z,0.90
2023-05-19T11:02:06.430Z,1.00
2023-05-19T11:04:47.433Z,1.00
2023-05-19T11:07:17.722Z,0.80
2023-05-19T11:09:44.316Z,1.27
2023-05-19T11:12:11.144Z,0.97
2023-05-19T11:14:37.745Z,1.73
2023-05-19T11:17:05.565Z,1.35
2023-05-19T11:19:35.087Z,1.23
2023-05-19T11:22:13.016Z,1.30
2023-05-19T11:24:44.414Z,1.10
2023-05-19T11:27:20.420Z,1.10
2023-05-19T11:29:48.737Z,0.82
2023-05-19T11:32:16.899Z,1.05
2023-05-19T11:34:44.906Z,0.98
2023-05-19T11:37:12.191Z,0.90
2023-05-19T11:39:40.253Z,0.90
2023-05-19T11:42:10.805Z,0.80
2023-05-19T11:44:38.502Z,1.05
2023-05-19T11:47:05.781Z,1.02
2023-05-19T11:49:32.591Z,1.00
2023-05-19T11:52:00.985Z,0.70
2023-05-19T11:54:48.267Z,0.70
2023-05-19T11:57:14.941Z,0.85
2023-05-19T11:59:49.697Z,0.82
2023-05-19T12:02:18.981Z,0.50
2023-05-19T12:04:46.330Z,0.63
2023-05-19T12:07:17.464Z,0.57
2023-05-19T12:09:45.999Z,0.60
2023-05-19T12:12:19.319Z,0.90
2023-05-19T12:14:47.692Z,0.60
2023-05-19T12:17:18.188Z,1.33
2023-05-19T12:19:47.047Z,1.38
2023-05-19T12:22:14.975Z,1.83
2023-05-19T12:24:43.116Z,1.35
2023-05-19T12:27:17.216Z,2.20
2023-05-19T12:29:43.824Z,1.50
2023-05-19T12:32:10.526Z,1.20
2023-05-19T12:34:38.468Z,0.88
2023-05-19T12:37:05.703Z,1.63
2023-05-19T12:39:34.730Z,1.90
2023-05-19T12:42:06.601Z,1.50
2023-05-19T12:44:38.272Z,1.88
2023-05-19T12:47:07.125Z,1.40
2023-05-19T12:49:34.307Z,1.85
2023-05-19T12:52:06.156Z,1.40
2023-05-19T12:54:36.010Z,1.38
2023-05-19T12:57:07.123Z,1.40
2023-05-19T12:59:38.822Z,1.35
2023-05-19T13:02:06.566Z,1.50
2023-05-19T13:04:37.904Z,1.57
2023-05-19T13:07:07.870Z,0.90
2023-05-19T13:09:36.272Z,1.05
2023-05-19T13:12:02.880Z,1.30
2023-05-19T13:14:29.485Z,1.05
2023-05-19T13:16:56.179Z,1.20
2023-05-19T13:19:25.809Z,1.50
2023-05-19T13:21:52.876Z,1.20
2023-05-19T13:24:19.447Z,1.30
2023-05-19T13:26:46.043Z,1.20
2023-05-19T13:29:12.575Z,1.17
2023-05-19T13:31:39.200Z,1.27
2023-05-19T13:34:05.700Z,1.30
2023-05-19T13:36:33.392Z,1.23
2023-05-19T13:39:01.786Z,1.52
2023-05-19T13:41:29.423Z,1.57
2023-05-19T13:43:59.789Z,1.48
2023-05-19T13:46:36.496Z,1.13
2023-05-19T13:49:12.947Z,1.10
2023-05-19T13:51:42.663Z,1.70
2023-05-19T13:54:09.419Z,1.30
2023-05-19T13:56:36.561Z,1.08
2023-05-19T13:59:04.021Z,1.40
2023-05-19T14:01:30.845Z,1.40
2023-05-19T14:03:57.718Z,1.17
2023-05-19T14:06:24.470Z,1.00
2023-05-19T14:08:51.193Z,1.30
2023-05-19T14:11:21.476Z,0.95
2023-05-19T14:13:52.913Z,1.05
2023-05-19T14:16:22.872Z,1.23
2023-05-19T14:18:49.576Z,1.10
2023-05-19T14:21:16.185Z,1.42
2023-05-19T14:23:42.805Z,0.90
2023-05-19T14:26:09.492Z,1.10
2023-05-19T14:28:36.210Z,0.90
2023-05-19T14:31:03.245Z,1.13
2023-05-19T14:33:34.921Z,1.40
2023-05-19T14:36:02.189Z,1.02
2023-05-19T14:38:29.443Z,1.25
2023-05-19T14:40:56.369Z,0.73
2023-05-19T14:43:23.159Z,0.80
2023-05-19T14:45:49.927Z,0.90
2023-05-19T14:48:17.515Z,0.73
2023-05-19T14:50:44.383Z,0.70
2023-05-19T14:53:11.184Z,0.95
2023-05-19T14:55:37.792Z,1.03
2023-05-19T14:58:12.902Z,0.98
2023-05-19T15:00:47.949Z,1.58
2023-05-19T15:03:14.597Z,1.00
2023-05-19T15:05:41.522Z,2.10
2023-05-19T15:08:08.115Z,0.90
2023-05-19T15:10:34.914Z,0.98
2023-05-19T15:13:01.684Z,1.25
2023-05-19T15:15:28.320Z,1.05
2023-05-19T15:17:54.928Z,0.85
2023-05-19T15:20:21.542Z,0.73
2023-05-19T15:22:48.722Z,0.80
2023-05-19T15:25:15.306Z,0.60
2023-05-19T15:27:41.885Z,0.93
2023-05-19T15:30:08.728Z,1.10
2023-05-19T15:32:35.463Z,0.70
2023-05-19T15:35:02.093Z,0.73
2023-05-19T15:37:28.748Z,0.85
2023-05-19T15:39:55.722Z,0.80
2023-05-19T15:42:22.314Z,1.08
2023-05-19T15:44:48.987Z,0.70
2023-05-19T15:47:15.614Z,0.90
2023-05-19T15:49:42.179Z,0.93
2023-05-19T15:52:08.851Z,1.10
2023-05-19T15:54:35.654Z,1.00
2023-05-19T15:57:02.201Z,0.90
2023-05-19T15:59:28.812Z,1.00
2023-05-19T16:01:55.529Z,0.70
2023-05-19T16:04:22.251Z,1.00
2023-05-19T16:06:48.999Z,1.13
2023-05-19T16:09:15.711Z,0.87
2023-05-19T16:11:43.398Z,1.17
2023-05-19T16:14:10.011Z,1.20
2023-05-19T16:16:36.577Z,1.00
2023-05-19T16:19:03.231Z,1.58
2023-05-19T16:21:29.828Z,1.07
2023-05-19T16:23:56.417Z,0.90
2023-05-19T16:26:23.079Z,0.90
2023-05-19T16:28:49.652Z,1.02
2023-05-19T16:31:16.390Z,0.95
2023-05-19T16:33:42.969Z,0.97
2023-05-19T16:36:09.557Z,0.93
2023-05-19T16:38:36.120Z,1.00
2023-05-19T16:41:04.480Z,0.80
2023-05-19T16:43:36.753Z,0.70
2023-05-19T16:46:04.532Z,1.10
2023-05-19T16:48:31.345Z,1.30
2023-05-19T16:50:57.903Z,0.90
2023-05-19T16:53:25.446Z,1.10
2023-05-19T16:55:51.941Z,0.80
2023-05-19T16:58:19.572Z,0.93
2023-05-19T17:00:46.235Z,0.90
2023-05-19T17:03:14.088Z,0.90
2023-05-19T17:05:41.950Z,1.52
2023-05-19T17:08:08.501Z,1.10
2023-05-19T17:10:35.918Z,1.03
2023-05-19T17:13:02.893Z,0.80
2023-05-19T17:15:30.321Z,1.00
2023-05-19T17:17:56.995Z,1.20
2023-05-19T17:20:23.576Z,1.00
2023-05-19T17:22:51.026Z,1.13
2023-05-19T17:25:18.711Z,1.27
2023-05-19T17:27:45.350Z,0.82
2023-05-19T17:30:13.466Z,1.20
2023-05-19T17:32:40.127Z,1.35
2023-05-19T17:35:07.587Z,0.80
2023-05-19T17:37:34.205Z,1.10
2023-05-19T17:40:00.970Z,1.67
2023-05-19T17:42:29.028Z,1.08
2023-05-19T17:44:55.615Z,1.08
2023-05-19T17:47:22.172Z,1.00
2023-05-19T17:49:48.919Z,1.08
2023-05-19T17:52:16.645Z,0.88
2023-05-19T17:54:43.496Z,1.00
2023-05-19T17:57:12.708Z,0.75
2023-05-19T17:59:39.635Z,0.87
2023-05-19T18:02:07.781Z,1.13
2023-05-19T18:04:34.820Z,1.00
2023-05-19T18:07:03.489Z,0.68
2023-05-19T18:09:30.797Z,0.70
2023-05-19T18:11:58.319Z,1.10
2023-05-19T18:14:24.918Z,0.73
2023-05-19T18:16:51.829Z,0.70
2023-05-19T18:19:18.354Z,1.02
2023-05-19T18:21:44.887Z,0.82
2023-05-19T18:24:11.565Z,1.00
2023-05-19T18:26:41.690Z,0.88
2023-05-19T18:29:11.254Z,1.75
2023-05-19T18:31:38.297Z,1.02
2023-05-19T18:34:04.966Z,1.10
2023-05-19T18:36:31.822Z,0.83
2023-05-19T18:39:00.072Z,1.10
2023-05-19T18:41:26.632Z,1.05
2023-05-19T18:43:53.282Z,1.00
2023-05-19T18:46:20.433Z,0.90
2023-05-19T18:48:47.357Z,1.00
2023-05-19T18:51:16.804Z,1.08
2023-05-19T18:53:43.366Z,0.90
2023-05-19T18:56:11.421Z,0.70
2023-05-19T18:58:37.993Z,0.77
2023-05-19T19:01:05.224Z,1.10
2023-05-19T19:03:32.004Z,1.25
2023-05-19T19:05:59.547Z,0.85
2023-05-19T19:08:26.164Z,1.05
2023-05-19T19:10:53.564Z,0.88
2023-05-19T19:13:20.816Z,0.80
2023-05-19T19:15:48.390Z,0.93
2023-05-19T19:18:14.929Z,0.80
2023-05-19T19:20:41.648Z,0.60
2023-05-19T19:23:08.278Z,0.80
2023-05-19T19:25:34.961Z,0.80
2023-05-19T19:28:01.644Z,0.65
2023-05-19T19:30:29.318Z,0.70
2023-05-19T19:32:57.043Z,0.52
2023-05-19T19:35:23.651Z,0.80
2023-05-19T19:37:51.702Z,0.83
2023-05-19T19:40:18.260Z,1.10
2023-05-19T19:42:44.789Z,0.70
2023-05-19T19:45:13.251Z,0.70
2023-05-19T19:47:42.156Z,0.60
2023-05-19T19:50:10.537Z,0.83
2023-05-19T19:52:37.590Z,0.70
2023-05-19T19:55:05.560Z,0.60
2023-05-19T19:57:35.149Z,0.80
2023-05-19T20:00:08.070Z,0.70
2023-05-19T20:02:45.382Z,1.00
2023-05-19T20:05:18.320Z,0.65
2023-05-19T20:07:45.065Z,1.15
2023-05-19T20:10:11.641Z,0.63
2023-05-19T20:12:38.298Z,0.80
2023-05-19T20:15:06.232Z,0.73
2023-05-19T20:17:32.796Z,1.00
2023-05-19T20:20:00.915Z,1.08
2023-05-19T20:22:27.433Z,1.10
2023-05-19T20:24:54.010Z,1.27
2023-05-19T20:27:20.627Z,1.33
2023-05-19T20:29:47.192Z,1.48
2023-05-19T20:32:13.810Z,1.75
2023-05-19T20:34:41.346Z,1.77
2023-05-19T20:37:07.956Z,1.70
2023-05-19T20:39:34.620Z,1.60
2023-05-19T20:42:01.216Z,2.00
2023-05-19T20:44:27.754Z,1.92
2023-05-19T20:46:54.803Z,1.38
2023-05-19T20:49:22.394Z,1.60
2023-05-19T20:51:48.912Z,2.10
2023-05-19T20:54:15.985Z,1.63
2023-05-19T20:56:42.617Z,1.60
2023-05-19T20:59:09.191Z,1.52
2023-05-19T21:01:35.779Z,2.17
2023-05-19T21:04:06.684Z,2.00
2023-05-19T21:06:33.827Z,1.50
2023-05-19T21:09:03.682Z,1.90
2023-05-19T21:11:30.423Z,2.00
2023-05-19T21:13:57.034Z,1.60
2023-05-19T21:16:23.664Z,1.80
2023-05-19T21:18:50.354Z,1.88
2023-05-19T21:21:16.954Z,1.63
2023-05-19T21:23:43.495Z,1.90
2023-05-19T21:26:09.963Z,1.60
2023-05-19T21:28:36.477Z,1.70
2023-05-19T21:31:05.332Z,1.38
2023-05-19T21:33:32.164Z,1.80
2023-05-19T21:36:00.284Z,1.63
2023-05-19T21:38:27.486Z,1.70
2023-05-19T21:40:54.106Z,1.90
2023-05-19T21:43:21.762Z,1.63
2023-05-19T21:45:48.428Z,1.40
2023-05-19T21:48:15.104Z,1.90
2023-05-19T21:50:41.741Z,1.60
2023-05-19T21:53:08.320Z,1.40
2023-05-19T21:55:34.964Z,1.70
2023-05-19T21:58:02.597Z,1.67
2023-05-19T22:00:29.448Z,1.52
2023-05-19T22:02:56.195Z,1.95
2023-05-19T22:05:22.871Z,1.73
2023-05-19T22:07:49.466Z,1.73
2023-05-19T22:10:16.480Z,1.30
2023-05-19T22:12:43.044Z,1.60
2023-05-19T22:15:10.480Z,1.55
2023-05-19T22:17:37.079Z,1.73
2023-05-19T22:20:04.047Z,1.60
2023-05-19T22:22:30.707Z,1.55
2023-05-19T22:24:57.261Z,1.90
2023-05-19T22:27:23.786Z,1.70
2023-05-19T22:29:50.530Z,1.90
2023-05-19T22:32:18.338Z,1.40
2023-05-19T22:34:45.360Z,1.65
2023-05-19T22:37:12.062Z,1.50
2023-05-19T22:39:39.421Z,1.35
2023-05-19T22:42:06.273Z,1.40
2023-05-19T22:44:32.862Z,1.50
2023-05-19T22:46:59.358Z,1.70
2023-05-19T22:49:27.328Z,1.75
2023-05-19T22:51:53.826Z,1.55
2023-05-19T22:54:20.493Z,1.33
2023-05-19T22:56:48.810Z,1.58
2023-05-19T22:59:18.010Z,1.77
2023-05-19T23:01:46.696Z,1.60
2023-05-19T23:04:13.864Z,1.65
2023-05-19T23:06:40.611Z,1.53
2023-05-19T23:09:07.153Z,1.75
2023-05-19T23:11:34.715Z,1.80
2023-05-19T23:14:01.994Z,1.60
2023-05-19T23:16:28.619Z,1.67
2023-05-19T23:18:55.310Z,1.43
2023-05-19T23:21:21.954Z,1.40
2023-05-19T23:23:49.552Z,1.55
2023-05-19T23:26:16.182Z,1.70
2023-05-19T23:28:43.156Z,1.80
2023-05-19T23:31:10.376Z,1.47
2023-05-19T23:33:37.044Z,1.90
2023-05-19T23:36:10.688Z,1.40
2023-05-19T23:38:37.535Z,1.58
2023-05-19T23:41:05.060Z,1.75
2023-05-19T23:43:33.212Z,1.63
2023-05-19T23:46:00.424Z,1.60
2023-05-19T23:48:28.845Z,1.40
2023-05-19T23:50:56.661Z,1.63
2023-05-19T23:53:23.414Z,1.63
2023-05-19T23:55:51.318Z,2.00
2023-05-19T23:58:18.087Z,1.70
